createdAt,value
2022-08-17T00:01:53.430Z,60.60
2022-08-17T00:04:25.214Z,60.70
2022-08-17T00:06:57.224Z,60.90
2022-08-17T00:09:28.969Z,61.10
2022-08-17T00:12:40.695Z,61.20
2022-08-17T00:14:55.121Z,61.50
2022-08-17T00:17:30.253Z,61.50
2022-08-17T00:20:04.063Z,61.70
2022-08-17T00:22:46.634Z,61.70
2022-08-17T00:25:20.060Z,61.90
2022-08-17T00:27:53.342Z,62.10
2022-08-17T00:30:26.185Z,61.90
2022-08-17T00:33:15.710Z,61.60
2022-08-17T00:35:49.993Z,62.00
2022-08-17T00:38:23.140Z,62.40
2022-08-17T00:40:59.228Z,62.60
2022-08-17T00:43:35.804Z,62.80
2022-08-17T00:46:10.433Z,63.00
2022-08-17T00:48:43.969Z,63.10
2022-08-17T00:51:22.237Z,63.20
2022-08-17T00:53:58.070Z,63.30
2022-08-17T00:56:33.841Z,63.40
2022-08-17T00:59:08.916Z,63.60
2022-08-17T01:01:41.479Z,63.70
2022-08-17T01:04:13.991Z,63.80
2022-08-17T01:06:48.208Z,63.90
2022-08-17T01:09:21.397Z,64.00
2022-08-17T01:11:53.339Z,64.20
2022-08-17T01:14:26.745Z,64.30
2022-08-17T01:16:58.525Z,64.50
2022-08-17T01:19:32.434Z,64.10
2022-08-17T01:22:16.830Z,64.30
2022-08-17T01:24:57.709Z,64.60
2022-08-17T01:27:29.653Z,64.60
2022-08-17T01:30:57.948Z,64.70
2022-08-17T01:32:58.943Z,64.80
2022-08-17T01:35:31.088Z,65.40
2022-08-17T01:38:05.082Z,65.00
2022-08-17T01:40:39.219Z,65.20
2022-08-17T01:43:14.378Z,65.40
2022-08-17T01:45:49.321Z,65.70
2022-08-17T01:48:38.024Z,65.90
2022-08-17T01:51:09.828Z,66.00
2022-08-17T01:53:52.640Z,66.10
2022-08-17T01:56:25.813Z,66.30
2022-08-17T01:58:57.745Z,66.20
2022-08-17T02:01:31.926Z,66.40
2022-08-17T02:04:05.622Z,66.80
2022-08-17T02:06:45.400Z,67.00
2022-08-17T02:09:29.863Z,67.20
2022-08-17T02:12:38.124Z,67.40
2022-08-17T02:14:55.562Z,67.40
2022-08-17T02:17:55.281Z,67.50
2022-08-17T02:20:41.809Z,67.70
2022-08-17T02:23:15.481Z,67.70
2022-08-17T02:25:49.615Z,67.70
2022-08-17T02:28:21.356Z,67.90
2022-08-17T02:31:02.643Z,68.10
2022-08-17T02:33:42.765Z,68.20
2022-08-17T02:36:15.430Z,68.40
2022-08-17T02:38:47.638Z,68.50
2022-08-17T02:41:20.835Z,68.60
2022-08-17T02:43:53.515Z,68.70
2022-08-17T02:46:25.660Z,68.70
2022-08-17T02:48:57.504Z,68.90
2022-08-17T02:51:29.296Z,68.90
2022-08-17T02:54:39.132Z,69.10
2022-08-17T02:56:54.153Z,69.30
2022-08-17T02:59:26.150Z,69.40
2022-08-17T03:01:57.903Z,69.70
2022-08-17T03:04:30.334Z,70.00
2022-08-17T03:07:02.101Z,70.20
2022-08-17T03:09:34.200Z,70.40
2022-08-17T03:12:09.695Z,70.60
2022-08-17T03:14:42.906Z,70.80
2022-08-17T03:17:15.891Z,70.90
2022-08-17T03:19:49.504Z,70.90
2022-08-17T03:22:36.933Z,71.10
2022-08-17T03:25:12.674Z,71.30
2022-08-17T03:27:48.219Z,71.40
2022-08-17T03:30:24.462Z,71.50
2022-08-17T03:33:00.041Z,71.50
2022-08-17T03:35:33.772Z,71.50
2022-08-17T03:38:06.079Z,71.60
2022-08-17T03:40:57.221Z,71.80
2022-08-17T03:43:34.411Z,72.10
2022-08-17T03:46:34.030Z,72.20
2022-08-17T03:49:27.003Z,72.30
2022-08-17T03:52:17.369Z,72.60
2022-08-17T03:55:07.846Z,72.90
2022-08-17T03:57:39.935Z,73.20
2022-08-17T04:00:14.362Z,73.30
2022-08-17T04:02:46.401Z,73.50
2022-08-17T04:05:18.320Z,73.70
2022-08-17T04:07:51.698Z,73.90
2022-08-17T04:10:26.377Z,74.20
2022-08-17T04:12:58.372Z,73.80
2022-08-17T04:15:33.299Z,74.20
2022-08-17T04:18:07.325Z,74.70
2022-08-17T04:20:39.397Z,75.20
2022-08-17T04:23:13.088Z,75.70
2022-08-17T04:25:46.397Z,76.10
2022-08-17T04:28:19.253Z,76.50
2022-08-17T04:30:52.355Z,76.90
2022-08-17T04:33:24.840Z,77.30
2022-08-17T04:35:59.768Z,77.20
2022-08-17T04:38:35.113Z,78.40
2022-08-17T04:41:25.814Z,78.70
2022-08-17T04:43:58.449Z,79.30
2022-08-17T04:46:33.273Z,78.80
2022-08-17T04:49:06.006Z,78.90
2022-08-17T04:51:39.035Z,79.10
2022-08-17T04:54:18.609Z,79.20
2022-08-17T04:56:50.423Z,79.30
2022-08-17T04:59:22.237Z,79.50
2022-08-17T05:01:55.187Z,79.70
2022-08-17T05:04:34.389Z,80.00
2022-08-17T05:07:06.876Z,80.00
2022-08-17T05:09:38.528Z,80.10
2022-08-17T05:12:10.120Z,80.50
2022-08-17T05:14:41.803Z,79.90
2022-08-17T05:17:15.053Z,79.90
2022-08-17T05:19:51.756Z,79.80
2022-08-17T05:22:23.728Z,79.60
2022-08-17T05:24:55.473Z,79.70
2022-08-17T05:27:27.263Z,79.70
2022-08-17T05:30:07.354Z,79.80
2022-08-17T05:32:40.558Z,79.70
2022-08-17T05:35:12.186Z,79.60
2022-08-17T05:37:44.293Z,79.40
2022-08-17T05:40:16.345Z,79.30
2022-08-17T05:42:48.663Z,79.10
2022-08-17T05:45:39.891Z,79.00
2022-08-17T05:48:15.692Z,78.90
2022-08-17T05:50:54.166Z,78.90
2022-08-17T05:53:37.268Z,79.50
2022-08-17T05:56:29.957Z,79.10
2022-08-17T05:59:14.116Z,79.20
2022-08-17T06:01:53.155Z,79.40
2022-08-17T06:04:36.059Z,79.30
2022-08-17T06:07:17.279Z,79.20
2022-08-17T06:09:54.974Z,78.90
2022-08-17T06:12:38.830Z,78.60
2022-08-17T06:15:23.689Z,79.00
2022-08-17T06:17:59.785Z,78.40
2022-08-17T06:20:43.785Z,78.00
2022-08-17T06:23:25.971Z,77.80
2022-08-17T06:26:03.735Z,77.90
2022-08-17T06:28:41.228Z,77.90
2022-08-17T06:31:22.210Z,77.80
2022-08-17T06:33:54.570Z,77.70
2022-08-17T06:36:42.313Z,77.80
2022-08-17T06:39:27.009Z,78.10
2022-08-17T06:43:02.042Z,78.20
2022-08-17T06:45:07.085Z,78.40
2022-08-17T06:47:42.211Z,78.50
2022-08-17T06:50:20.388Z,78.70
2022-08-17T06:53:05.005Z,78.60
2022-08-17T06:55:45.065Z,78.40
2022-08-17T06:58:22.177Z,78.20
2022-08-17T07:00:59.073Z,78.00
2022-08-17T07:03:38.284Z,77.90
2022-08-17T07:06:14.673Z,77.80
2022-08-17T07:08:58.050Z,77.60
2022-08-17T07:11:35.949Z,77.40
2022-08-17T07:14:19.954Z,77.20
2022-08-17T07:16:54.842Z,77.00
2022-08-17T07:19:31.608Z,76.60
2022-08-17T07:22:14.210Z,76.30
2022-08-17T07:24:51.451Z,75.80
2022-08-17T07:27:27.505Z,75.50
2022-08-17T07:30:08.048Z,75.00
2022-08-17T07:32:45.872Z,74.60
2022-08-17T07:35:21.973Z,74.30
2022-08-17T07:38:25.748Z,74.10
2022-08-17T07:41:06.547Z,73.90
2022-08-17T07:43:46.925Z,73.80
2022-08-17T07:46:39.814Z,73.60
2022-08-17T07:49:24.893Z,73.20
2022-08-17T07:52:24.083Z,73.00
2022-08-17T07:54:52.837Z,72.60
2022-08-17T07:57:34.053Z,72.40
2022-08-17T08:00:23.853Z,72.20
2022-08-17T08:03:26.134Z,72.00
2022-08-17T08:06:01.141Z,71.70
2022-08-17T08:08:37.014Z,71.60
2022-08-17T08:11:11.956Z,71.40
2022-08-17T08:13:45.638Z,71.20
2022-08-17T08:16:25.935Z,71.00
2022-08-17T08:18:59.791Z,70.70
2022-08-17T08:21:35.004Z,70.50
2022-08-17T08:24:15.212Z,70.20
2022-08-17T08:26:50.290Z,70.00
2022-08-17T08:29:29.613Z,70.00
2022-08-17T08:32:03.816Z,69.80
2022-08-17T08:34:44.575Z,69.60
2022-08-17T08:37:44.802Z,69.40
2022-08-17T08:40:32.006Z,69.10
2022-08-17T08:43:11.526Z,68.90
2022-08-17T08:45:49.486Z,68.70
2022-08-17T08:48:56.475Z,68.50
2022-08-17T08:51:21.335Z,68.40
2022-08-17T08:53:57.149Z,68.20
2022-08-17T08:56:34.188Z,68.10
2022-08-17T08:59:20.374Z,68.00
2022-08-17T09:02:03.526Z,67.90
2022-08-17T09:05:13.320Z,67.70
2022-08-17T09:07:56.229Z,67.40
2022-08-17T09:10:39.414Z,67.20
2022-08-17T09:13:28.138Z,67.20
2022-08-17T09:16:06.833Z,67.10
2022-08-17T09:19:00.512Z,66.80
2022-08-17T09:21:48.053Z,66.60
2022-08-17T09:24:26.493Z,66.50
2022-08-17T09:27:02.333Z,66.30
2022-08-17T09:29:38.957Z,66.10
2022-08-17T09:32:17.543Z,66.10
2022-08-17T09:34:54.759Z,66.10
2022-08-17T09:37:32.358Z,65.90
2022-08-17T09:40:13.626Z,65.90
2022-08-17T09:42:48.959Z,65.60
2022-08-17T09:45:32.295Z,65.30
2022-08-17T09:48:08.267Z,65.20
2022-08-17T09:51:01.625Z,65.00
2022-08-17T09:53:39.067Z,64.90
2022-08-17T09:56:47.043Z,65.00
2022-08-17T09:59:40.418Z,65.40
2022-08-17T10:02:40.379Z,64.80
2022-08-17T10:05:17.844Z,64.60
2022-08-17T10:08:07.043Z,64.50
2022-08-17T10:10:52.218Z,64.50
2022-08-17T10:13:39.502Z,64.50
2022-08-17T10:16:19.478Z,64.40
2022-08-17T10:19:02.677Z,64.30
2022-08-17T10:22:00.850Z,64.20
2022-08-17T10:25:21.508Z,64.20
2022-08-17T10:27:54.387Z,64.10
2022-08-17T10:30:30.654Z,64.40
2022-08-17T10:33:06.983Z,64.70
2022-08-17T10:35:48.872Z,64.80
2022-08-17T10:38:37.107Z,64.90
2022-08-17T10:41:27.012Z,65.10
2022-08-17T10:44:38.694Z,65.40
2022-08-17T10:47:08.233Z,66.00
2022-08-17T10:49:47.655Z,66.40
2022-08-17T10:52:48.650Z,66.50
2022-08-17T10:55:20.720Z,66.50
2022-08-17T10:58:20.978Z,66.60
2022-08-17T11:01:03.009Z,67.10
2022-08-17T11:03:35.085Z,67.30
2022-08-17T11:06:17.844Z,67.60
2022-08-17T11:09:29.595Z,68.70
2022-08-17T11:12:19.820Z,69.30
2022-08-17T11:15:26.375Z,70.00
2022-08-17T11:18:18.052Z,70.30
2022-08-17T11:21:13.162Z,69.70
2022-08-17T11:23:59.404Z,69.60
2022-08-17T11:26:34.455Z,69.90
2022-08-17T11:29:16.591Z,70.10
2022-08-17T11:32:02.928Z,70.30
2022-08-17T11:34:35.470Z,70.60
2022-08-17T11:37:35.747Z,70.50
2022-08-17T11:40:24.665Z,70.70
2022-08-17T11:43:25.640Z,70.90
2022-08-17T11:46:13.550Z,71.40
2022-08-17T11:49:19.987Z,70.90
2022-08-17T11:52:13.049Z,71.00
2022-08-17T11:54:46.451Z,71.10
2022-08-17T11:58:01.826Z,71.20
2022-08-17T12:00:56.438Z,71.50
2022-08-17T12:03:55.842Z,71.20
2022-08-17T12:06:39.860Z,71.20
2022-08-17T12:09:17.106Z,71.10
2022-08-17T12:12:12.445Z,71.00
2022-08-17T12:15:09.481Z,71.20
2022-08-17T12:17:47.336Z,71.00
2022-08-17T12:20:26.045Z,70.90
2022-08-17T12:23:10.278Z,70.80
2022-08-17T12:25:49.390Z,70.80
2022-08-17T12:28:24.645Z,70.60
2022-08-17T12:30:59.650Z,70.50
2022-08-17T12:33:31.700Z,70.60
2022-08-17T12:36:08.636Z,70.60
2022-08-17T12:38:41.753Z,70.30
2022-08-17T12:41:28.944Z,70.00
2022-08-17T12:44:03.187Z,69.50
2022-08-17T12:46:51.495Z,69.30
2022-08-17T12:49:29.495Z,69.40
2022-08-17T12:52:12.213Z,69.40
2022-08-17T12:55:02.906Z,69.40
2022-08-17T12:57:42.450Z,69.30
2022-08-17T13:00:17.662Z,69.20
2022-08-17T13:02:52.454Z,69.00
2022-08-17T13:05:27.580Z,68.90
2022-08-17T13:08:04.486Z,68.80
2022-08-17T13:10:37.691Z,68.60
2022-08-17T13:13:18.237Z,68.40
2022-08-17T13:15:55.722Z,68.40
2022-08-17T13:18:40.025Z,68.30
2022-08-17T13:21:27.541Z,68.10
2022-08-17T13:24:01.777Z,68.00
2022-08-17T13:26:35.456Z,68.10
2022-08-17T13:29:08.871Z,67.90
2022-08-17T13:31:52.450Z,68.30
2022-08-17T13:34:33.307Z,67.80
2022-08-17T13:37:18.710Z,67.60
2022-08-17T13:39:58.082Z,67.50
2022-08-17T13:42:51.648Z,67.60
2022-08-17T13:45:50.681Z,67.50
2022-08-17T13:48:24.871Z,67.20
2022-08-17T13:51:05.479Z,67.00
2022-08-17T13:53:51.597Z,66.90
2022-08-17T13:56:44.770Z,66.80
2022-08-17T13:59:36.405Z,66.70
2022-08-17T14:02:21.032Z,66.70
2022-08-17T14:04:52.939Z,66.10
2022-08-17T14:07:32.156Z,65.40
2022-08-17T14:10:09.259Z,64.40
2022-08-17T14:12:43.574Z,63.00
2022-08-17T14:15:18.180Z,62.30
2022-08-17T14:17:50.663Z,61.70
2022-08-17T14:20:26.009Z,60.80
2022-08-17T14:23:00.726Z,60.00
2022-08-17T14:25:32.824Z,59.40
2022-08-17T14:28:07.045Z,58.60
2022-08-17T14:30:40.632Z,57.90
2022-08-17T14:33:12.769Z,57.10
2022-08-17T14:35:44.590Z,56.80
2022-08-17T14:38:16.577Z,56.30
2022-08-17T14:40:48.310Z,55.90
2022-08-17T14:43:21.419Z,55.60
2022-08-17T14:45:53.320Z,55.40
2022-08-17T14:48:25.424Z,55.10
2022-08-17T14:50:57.742Z,55.10
2022-08-17T14:53:29.941Z,54.40
2022-08-17T14:56:02.032Z,54.20
2022-08-17T14:58:35.372Z,53.80
2022-08-17T15:01:11.366Z,53.50
2022-08-17T15:03:43.769Z,52.70
2022-08-17T15:06:16.437Z,52.40
2022-08-17T15:08:49.309Z,52.10
2022-08-17T15:11:21.136Z,51.20
2022-08-17T15:13:54.426Z,51.10
2022-08-17T15:16:26.942Z,50.70
2022-08-17T15:18:58.847Z,50.60
2022-08-17T15:21:30.968Z,50.60
2022-08-17T15:24:03.068Z,50.50
2022-08-17T15:26:36.091Z,50.30
2022-08-17T15:29:10.194Z,50.80
2022-08-17T15:31:42.039Z,50.10
2022-08-17T15:34:14.365Z,49.80
2022-08-17T15:36:49.632Z,49.70
2022-08-17T15:39:22.046Z,49.60
2022-08-17T15:41:58.376Z,49.60
2022-08-17T15:44:34.865Z,49.70
2022-08-17T15:47:07.164Z,49.70
2022-08-17T15:49:39.499Z,50.30
2022-08-17T15:52:17.189Z,49.70
2022-08-17T15:54:50.596Z,49.60
2022-08-17T15:57:24.625Z,49.70
2022-08-17T15:59:58.638Z,49.90
2022-08-17T16:03:44.836Z,49.70
2022-08-17T16:05:31.121Z,49.60
2022-08-17T16:08:03.790Z,49.50
2022-08-17T16:10:36.366Z,49.50
2022-08-17T16:13:17.648Z,49.40
2022-08-17T16:15:57.054Z,49.40
2022-08-17T16:18:33.629Z,49.30
2022-08-17T16:21:27.526Z,49.40
2022-08-17T16:24:02.739Z,49.60
2022-08-17T16:26:36.340Z,49.70
2022-08-17T16:29:08.501Z,50.10
2022-08-17T16:31:42.471Z,50.20
2022-08-17T16:34:18.000Z,50.20
2022-08-17T16:36:55.779Z,50.30
2022-08-17T16:39:32.681Z,50.50
2022-08-17T16:42:05.610Z,50.70
2022-08-17T16:44:37.233Z,50.90
2022-08-17T16:47:10.513Z,50.90
2022-08-17T16:49:43.114Z,51.20
2022-08-17T16:52:32.876Z,51.40
2022-08-17T16:55:07.590Z,51.60
2022-08-17T16:57:50.032Z,51.90
2022-08-17T17:00:22.481Z,52.20
2022-08-17T17:02:56.418Z,52.10
2022-08-17T17:05:33.312Z,52.20
2022-08-17T17:08:08.837Z,52.60
2022-08-17T17:10:43.012Z,53.10
2022-08-17T17:13:24.389Z,53.50
2022-08-17T17:15:58.717Z,54.00
2022-08-17T17:18:42.593Z,54.40
2022-08-17T17:21:16.199Z,55.40
2022-08-17T17:23:52.091Z,55.10
2022-08-17T17:26:28.637Z,55.50
2022-08-17T17:29:16.327Z,55.70
2022-08-17T17:31:50.902Z,56.00
2022-08-17T17:34:25.909Z,56.10
2022-08-17T17:37:03.130Z,56.30
2022-08-17T17:39:41.542Z,56.40
2022-08-17T17:42:20.333Z,56.50
2022-08-17T17:44:58.970Z,56.70
2022-08-17T17:47:31.186Z,57.00
2022-08-17T17:50:05.507Z,57.20
2022-08-17T17:52:46.214Z,57.40
2022-08-17T17:55:44.416Z,57.60
2022-08-17T17:58:27.427Z,57.90
2022-08-17T18:01:13.727Z,58.00
2022-08-17T18:03:59.102Z,58.20
2022-08-17T18:06:39.687Z,58.30
2022-08-17T18:09:18.119Z,58.40
2022-08-17T18:12:03.422Z,58.60
2022-08-17T18:14:51.889Z,58.60
2022-08-17T18:17:23.658Z,58.80
2022-08-17T18:19:55.396Z,59.00
2022-08-17T18:22:28.581Z,59.00
2022-08-17T18:25:00.194Z,59.10
2022-08-17T18:27:36.936Z,58.90
2022-08-17T18:30:26.475Z,59.20
2022-08-17T18:33:19.100Z,59.30
2022-08-17T18:35:59.412Z,59.30
2022-08-17T18:38:36.381Z,59.40
2022-08-17T18:41:19.180Z,59.60
2022-08-17T18:44:00.639Z,59.80
2022-08-17T18:46:36.499Z,59.90
2022-08-17T18:49:26.598Z,60.00
2022-08-17T18:52:10.853Z,60.20
2022-08-17T18:55:01.594Z,60.30
2022-08-17T18:57:35.739Z,60.30
2022-08-17T19:00:12.941Z,60.30
2022-08-17T19:02:53.806Z,60.60
2022-08-17T19:05:33.745Z,60.90
2022-08-17T19:08:19.689Z,61.00
2022-08-17T19:10:56.147Z,61.40
2022-08-17T19:13:31.356Z,61.50
2022-08-17T19:16:16.034Z,61.60
2022-08-17T19:18:55.984Z,62.00
2022-08-17T19:21:34.230Z,62.10
2022-08-17T19:24:07.772Z,62.10
2022-08-17T19:26:54.369Z,62.20
2022-08-17T19:29:37.030Z,63.00
2022-08-17T19:32:10.220Z,63.50
2022-08-17T19:34:44.367Z,63.70
2022-08-17T19:37:30.432Z,63.40
2022-08-17T19:40:24.519Z,63.30
2022-08-17T19:43:18.155Z,63.00
2022-08-17T19:46:01.037Z,62.50
2022-08-17T19:48:45.504Z,62.10
2022-08-17T19:51:26.255Z,61.60
2022-08-17T19:54:07.098Z,61.30
2022-08-17T19:56:47.428Z,60.90
2022-08-17T19:59:35.789Z,60.70
2022-08-17T20:02:19.583Z,60.40
2022-08-17T20:04:53.037Z,60.10
2022-08-17T20:07:34.230Z,60.00
2022-08-17T20:10:11.936Z,59.80
2022-08-17T20:12:44.535Z,59.60
2022-08-17T20:15:27.085Z,59.40
2022-08-17T20:18:02.299Z,59.10
2022-08-17T20:20:43.477Z,58.80
2022-08-17T20:23:34.770Z,58.70
2022-08-17T20:26:19.075Z,58.50
2022-08-17T20:29:36.821Z,58.30
2022-08-17T20:32:24.085Z,58.10
2022-08-17T20:35:22.314Z,58.10
2022-08-17T20:37:58.178Z,58.10
2022-08-17T20:40:35.157Z,58.30
2022-08-17T20:43:50.870Z,58.40
2022-08-17T20:46:34.337Z,58.30
2022-08-17T20:49:18.077Z,58.20
2022-08-17T20:52:02.746Z,58.00
2022-08-17T20:54:47.671Z,58.10
2022-08-17T20:57:48.368Z,58.00
2022-08-17T21:00:40.625Z,57.70
2022-08-17T21:03:50.234Z,57.70
2022-08-17T21:06:25.759Z,57.80
2022-08-17T21:09:18.682Z,58.20
2022-08-17T21:12:04.601Z,58.70
2022-08-17T21:14:50.745Z,59.40
2022-08-17T21:17:44.763Z,59.70
2022-08-17T21:20:32.805Z,60.30
2022-08-17T21:23:21.781Z,60.70
2022-08-17T21:26:14.425Z,61.10
2022-08-17T21:29:01.880Z,61.50
2022-08-17T21:32:18.510Z,61.90
2022-08-17T21:35:25.124Z,62.40
2022-08-17T21:38:02.860Z,62.90
2022-08-17T21:40:34.768Z,63.20
2022-08-17T21:43:23.238Z,63.50
2022-08-17T21:46:01.442Z,64.10
2022-08-17T21:48:42.821Z,64.30
2022-08-17T21:51:19.390Z,65.30
2022-08-17T21:53:53.105Z,66.00
2022-08-17T21:56:28.795Z,66.10
2022-08-17T21:59:04.214Z,66.00
2022-08-17T22:01:39.574Z,65.90
2022-08-17T22:04:20.462Z,65.70
2022-08-17T22:06:57.587Z,65.40
2022-08-17T22:09:32.089Z,65.00
2022-08-17T22:12:08.982Z,64.60
2022-08-17T22:14:52.667Z,64.20
2022-08-17T22:17:29.373Z,63.90
2022-08-17T22:20:14.155Z,63.40
2022-08-17T22:23:24.850Z,63.10
2022-08-17T22:26:00.073Z,62.70
2022-08-17T22:28:40.010Z,62.40
2022-08-17T22:31:13.297Z,62.40
2022-08-17T22:33:48.992Z,62.30
2022-08-17T22:36:24.994Z,62.10
2022-08-17T22:38:58.110Z,61.90
2022-08-17T22:41:36.420Z,61.70
2022-08-17T22:44:13.961Z,61.60
2022-08-17T22:47:11.391Z,61.40
2022-08-17T22:49:54.067Z,61.20
2022-08-17T22:52:32.032Z,61.20
2022-08-17T22:55:25.679Z,61.20
2022-08-17T22:58:16.017Z,61.20
2022-08-17T23:00:48.812Z,61.60
2022-08-17T23:03:22.125Z,62.20
2022-08-17T23:06:04.138Z,62.50
2022-08-17T23:08:47.909Z,62.80
2022-08-17T23:11:19.571Z,63.00
2022-08-17T23:14:08.303Z,63.10
2022-08-17T23:16:43.165Z,63.30
2022-08-17T23:19:15.733Z,63.30
2022-08-17T23:21:55.255Z,63.30
2022-08-17T23:24:28.287Z,63.20
2022-08-17T23:26:59.928Z,63.00
2022-08-17T23:29:31.543Z,62.90
2022-08-17T23:32:04.734Z,62.70
2022-08-17T23:34:37.093Z,62.40
2022-08-17T23:37:10.785Z,62.60
2022-08-17T23:39:44.666Z,62.10
2022-08-17T23:42:21.651Z,62.00
2022-08-17T23:44:53.364Z,61.70
2022-08-17T23:47:25.144Z,61.60
2022-08-17T23:49:56.982Z,61.50
2022-08-17T23:52:37.710Z,61.30
2022-08-17T23:55:10.287Z,61.20
2022-08-17T23:57:42.205Z,61.00
